createdAt,value
2023-04-22T00:00:01.149Z,3.2
2023-04-22T00:01:01.745Z,3.1
2023-04-22T00:02:02.392Z,2.9
2023-04-22T00:03:03.060Z,4.1
2023-04-22T00:04:03.879Z,3.4
2023-04-22T00:05:04.849Z,3.3
2023-04-22T00:06:05.551Z,3.3
2023-04-22T00:07:06.138Z,3.3
2023-04-22T00:08:06.735Z,3.1
2023-04-22T00:09:07.352Z,3.2
2023-04-22T00:10:07.944Z,3.0
2023-04-22T00:11:08.532Z,3.3
2023-04-22T00:12:09.171Z,3.8
2023-04-22T00:13:09.767Z,3.0
2023-04-22T00:14:10.353Z,3.2
2023-04-22T00:15:10.949Z,3.3
2023-04-22T00:16:11.605Z,3.1
2023-04-22T00:17:12.248Z,3.0
2023-04-22T00:18:12.867Z,2.9
2023-04-22T00:19:13.478Z,3.1
2023-04-22T00:20:14.071Z,3.0
2023-04-22T00:21:14.664Z,3.3
2023-04-22T00:22:15.283Z,3.3
2023-04-22T00:23:15.883Z,3.3
2023-04-22T00:24:16.464Z,3.1
2023-04-22T00:25:17.082Z,3.4
2023-04-22T00:26:17.680Z,3.3
2023-04-22T00:27:18.275Z,3.4
2023-04-22T00:28:18.873Z,3.3
2023-04-22T00:29:19.472Z,3.2
2023-04-22T00:30:20.070Z,3.4
2023-04-22T00:31:20.759Z,3.5
2023-04-22T00:32:21.422Z,3.6
2023-04-22T00:33:22.018Z,3.6
2023-04-22T00:34:22.613Z,3.1
2023-04-22T00:35:23.226Z,3.0
2023-04-22T00:36:23.837Z,3.5
2023-04-22T00:37:24.433Z,4.3
2023-04-22T00:38:25.028Z,3.3
2023-04-22T00:39:25.642Z,3.5
2023-04-22T00:40:26.234Z,3.4
2023-04-22T00:41:26.833Z,3.9
2023-04-22T00:42:27.428Z,3.8
2023-04-22T00:43:28.027Z,3.5
2023-04-22T00:44:28.613Z,3.2
2023-04-22T00:45:29.205Z,3.4
2023-04-22T00:46:29.890Z,3.2
2023-04-22T00:47:30.487Z,3.3
2023-04-22T00:48:31.039Z,3.1
2023-04-22T00:49:31.627Z,4.2
2023-04-22T00:50:32.234Z,3.2
2023-04-22T00:51:32.815Z,3.2
2023-04-22T00:52:33.414Z,3.1
2023-04-22T00:53:34.055Z,3.0
2023-04-22T00:54:34.639Z,3.6
2023-04-22T00:55:35.258Z,3.5
2023-04-22T00:56:35.846Z,3.5
2023-04-22T00:57:36.466Z,3.3
2023-04-22T00:58:37.056Z,3.5
2023-04-22T00:59:37.982Z,3.6
2023-04-22T01:00:38.806Z,3.2
2023-04-22T01:01:39.370Z,3.7
2023-04-22T01:02:40.158Z,3.6
2023-04-22T01:03:41.150Z,3.5
2023-04-22T01:04:41.439Z,3.6
2023-04-22T01:05:42.039Z,3.5
2023-04-22T01:06:42.647Z,3.6
2023-04-22T01:07:43.267Z,3.9
2023-04-22T01:08:43.859Z,3.1
2023-04-22T01:09:44.448Z,3.2
2023-04-22T01:10:45.044Z,3.9
2023-04-22T01:11:45.638Z,4.0
2023-04-22T01:12:46.244Z,3.2
2023-04-22T01:13:46.848Z,3.5
2023-04-22T01:14:47.465Z,3.4
2023-04-22T01:15:48.037Z,3.9
2023-04-22T01:16:48.671Z,3.5
2023-04-22T01:17:49.257Z,3.4
2023-04-22T01:18:49.820Z,4.0
2023-04-22T01:19:50.413Z,4.1
2023-04-22T01:20:51.014Z,3.5
2023-04-22T01:21:51.609Z,3.6
2023-04-22T01:22:52.213Z,3.6
2023-04-22T01:23:52.804Z,3.3
2023-04-22T01:24:53.403Z,3.4
2023-04-22T01:25:54.016Z,3.7
2023-04-22T01:26:54.608Z,3.6
2023-04-22T01:27:55.227Z,4.0
2023-04-22T01:28:55.816Z,4.5
2023-04-22T01:29:56.412Z,3.5
2023-04-22T01:30:57.025Z,3.8
2023-04-22T01:31:57.724Z,3.4
2023-04-22T01:32:58.358Z,3.4
2023-04-22T01:33:58.921Z,3.3
2023-04-22T01:34:59.556Z,3.5
2023-04-22T01:36:00.175Z,3.7
2023-04-22T01:37:00.797Z,3.3
2023-04-22T01:38:01.382Z,3.9
2023-04-22T01:39:01.979Z,3.6
2023-04-22T01:40:02.572Z,3.3
2023-04-22T01:41:03.167Z,3.4
2023-04-22T01:42:03.773Z,3.2
2023-04-22T01:43:04.370Z,3.6
2023-04-22T01:44:05.027Z,3.5
2023-04-22T01:45:05.572Z,3.7
2023-04-22T01:46:06.199Z,3.4
2023-04-22T01:47:06.778Z,3.1
2023-04-22T01:48:07.489Z,3.5
2023-04-22T01:49:08.094Z,3.9
2023-04-22T01:50:08.687Z,3.4
2023-04-22T01:51:09.301Z,3.8
2023-04-22T01:52:09.911Z,3.9
2023-04-22T01:53:10.500Z,3.6
2023-04-22T01:54:11.099Z,3.9
2023-04-22T01:55:11.696Z,3.5
2023-04-22T01:56:12.284Z,4.0
2023-04-22T01:57:12.877Z,3.6
2023-04-22T01:58:13.475Z,3.5
2023-04-22T01:59:14.122Z,3.6
2023-04-22T02:00:14.701Z,3.9
2023-04-22T02:01:15.315Z,3.4
2023-04-22T02:02:16.091Z,3.3
2023-04-22T02:03:16.795Z,3.5
2023-04-22T02:04:17.425Z,3.6
2023-04-22T02:05:18.031Z,3.8
2023-04-22T02:06:18.614Z,3.6
2023-04-22T02:07:19.204Z,3.6
2023-04-22T02:08:19.799Z,3.6
2023-04-22T02:09:20.402Z,4.1
2023-04-22T02:10:20.986Z,4.3
2023-04-22T02:11:21.584Z,3.7
2023-04-22T02:12:22.196Z,4.0
2023-04-22T02:13:22.788Z,3.8
2023-04-22T02:14:23.381Z,3.7
2023-04-22T02:15:23.981Z,4.1
2023-04-22T02:16:24.644Z,3.8
2023-04-22T02:17:25.245Z,4.0
2023-04-22T02:18:25.851Z,3.7
2023-04-22T02:19:26.503Z,4.2
2023-04-22T02:20:27.104Z,3.9
2023-04-22T02:21:27.699Z,4.0
2023-04-22T02:22:28.297Z,4.9
2023-04-22T02:23:28.889Z,4.0
2023-04-22T02:24:29.479Z,3.5
2023-04-22T02:25:30.071Z,4.4
2023-04-22T02:26:30.666Z,4.4
2023-04-22T02:27:31.258Z,5.1
2023-04-22T02:28:31.853Z,4.7
2023-04-22T02:29:32.464Z,4.3
2023-04-22T02:30:33.073Z,4.5
2023-04-22T02:31:33.687Z,4.0
2023-04-22T02:32:34.270Z,4.3
2023-04-22T02:33:34.852Z,3.9
2023-04-22T02:34:35.452Z,4.3
2023-04-22T02:35:36.038Z,3.8
2023-04-22T02:36:36.631Z,4.6
2023-04-22T02:37:37.223Z,4.0
2023-04-22T02:38:37.822Z,4.0
2023-04-22T02:39:38.681Z,3.9
2023-04-22T02:40:39.458Z,3.9
2023-04-22T02:41:40.047Z,4.6
2023-04-22T02:42:40.659Z,3.6
2023-04-22T02:43:41.236Z,4.3
2023-04-22T02:44:41.835Z,4.7
2023-04-22T02:45:42.441Z,4.5
2023-04-22T02:46:43.109Z,4.1
2023-04-22T02:47:43.716Z,3.9
2023-04-22T02:48:44.285Z,4.1
2023-04-22T02:49:44.895Z,4.0
2023-04-22T02:50:45.476Z,3.5
2023-04-22T02:51:46.078Z,4.2
2023-04-22T02:52:46.692Z,3.8
2023-04-22T02:53:47.299Z,3.7
2023-04-22T02:54:47.893Z,4.0
2023-04-22T02:55:48.489Z,4.1
2023-04-22T02:56:49.092Z,4.4
2023-04-22T02:57:49.688Z,4.0
2023-04-22T02:58:50.300Z,4.2
2023-04-22T02:59:50.866Z,3.9
2023-04-22T03:00:51.519Z,3.9
2023-04-22T03:01:52.119Z,3.2
2023-04-22T03:02:52.872Z,3.5
2023-04-22T03:03:53.685Z,3.8
2023-04-22T03:04:54.150Z,3.7
2023-04-22T03:05:54.746Z,3.9
2023-04-22T03:06:55.336Z,3.7
2023-04-22T03:07:55.925Z,3.8
2023-04-22T03:08:56.532Z,3.6
2023-04-22T03:09:57.112Z,4.3
2023-04-22T03:10:57.755Z,4.2
2023-04-22T03:11:58.379Z,4.4
2023-04-22T03:12:58.972Z,3.7
2023-04-22T03:13:59.557Z,3.5
2023-04-22T03:15:00.159Z,4.0
2023-04-22T03:16:00.796Z,3.5
2023-04-22T03:17:01.570Z,3.9
2023-04-22T03:18:02.074Z,3.6
2023-04-22T03:19:02.651Z,4.0
2023-04-22T03:20:03.224Z,3.8
2023-04-22T03:21:03.803Z,4.2
2023-04-22T03:22:04.396Z,4.0
2023-04-22T03:23:04.998Z,4.4
2023-04-22T03:24:05.583Z,3.6
2023-04-22T03:25:06.176Z,3.7
2023-04-22T03:26:06.789Z,4.0
2023-04-22T03:27:07.386Z,4.0
2023-04-22T03:28:07.977Z,3.9
2023-04-22T03:29:08.568Z,3.8
2023-04-22T03:30:09.164Z,3.6
2023-04-22T03:31:09.762Z,3.8
2023-04-22T03:32:10.402Z,3.8
2023-04-22T03:33:11.016Z,3.9
2023-04-22T03:34:11.561Z,3.5
2023-04-22T03:35:12.155Z,4.4
2023-04-22T03:36:12.768Z,3.6
2023-04-22T03:37:13.384Z,3.2
2023-04-22T03:38:13.965Z,3.7
2023-04-22T03:39:14.580Z,3.6
2023-04-22T03:40:15.174Z,4.1
2023-04-22T03:41:15.774Z,3.8
2023-04-22T03:42:16.384Z,3.8
2023-04-22T03:43:16.982Z,3.9
2023-04-22T03:44:17.569Z,3.6
2023-04-22T03:45:18.170Z,3.6
2023-04-22T03:46:19.343Z,3.3
2023-04-22T03:47:19.904Z,3.4
2023-04-22T03:48:20.666Z,3.7
2023-04-22T03:49:21.278Z,3.6
2023-04-22T03:50:21.878Z,3.6
2023-04-22T03:51:22.499Z,3.6
2023-04-22T03:52:23.086Z,3.5
2023-04-22T03:53:23.696Z,3.7
2023-04-22T03:54:24.312Z,3.6
2023-04-22T03:55:24.929Z,3.6
2023-04-22T03:56:25.531Z,3.6
2023-04-22T03:57:26.116Z,3.5
2023-04-22T03:58:26.724Z,3.4
2023-04-22T03:59:27.303Z,3.3
2023-04-22T04:00:27.898Z,3.1
2023-04-22T04:01:28.492Z,3.7
2023-04-22T04:02:29.168Z,3.3
2023-04-22T04:03:31.160Z,3.2
2023-04-22T04:04:30.716Z,3.2
2023-04-22T04:05:31.855Z,3.0
2023-04-22T04:06:32.472Z,3.6
2023-04-22T04:07:33.069Z,3.1
2023-04-22T04:08:33.698Z,3.1
2023-04-22T04:09:34.287Z,3.3
2023-04-22T04:10:34.883Z,3.6
2023-04-22T04:11:35.485Z,3.8
2023-04-22T04:12:36.080Z,3.4
2023-04-22T04:13:36.681Z,2.9
2023-04-22T04:14:37.274Z,3.3
2023-04-22T04:15:37.970Z,3.0
2023-04-22T04:16:38.526Z,2.8
2023-04-22T04:17:39.170Z,3.3
2023-04-22T04:18:39.731Z,3.3
2023-04-22T04:19:40.738Z,3.1
2023-04-22T04:20:41.652Z,2.7
2023-04-22T04:21:42.253Z,3.4
2023-04-22T04:22:42.846Z,3.4
2023-04-22T04:23:43.444Z,3.4
2023-04-22T04:24:44.042Z,2.9
2023-04-22T04:25:44.647Z,3.7
2023-04-22T04:26:45.259Z,3.6
2023-04-22T04:27:45.874Z,3.7
2023-04-22T04:28:46.470Z,3.4
2023-04-22T04:29:47.073Z,3.3
2023-04-22T04:30:47.808Z,3.3
2023-04-22T04:31:48.481Z,3.4
2023-04-22T04:32:49.198Z,3.0
2023-04-22T04:33:49.760Z,3.4
2023-04-22T04:34:50.361Z,3.2
2023-04-22T04:35:50.956Z,3.3
2023-04-22T04:36:51.552Z,4.0
2023-04-22T04:37:52.155Z,3.4
2023-04-22T04:38:55.198Z,2.9
2023-04-22T04:39:54.348Z,2.8
2023-04-22T04:40:54.939Z,3.1
2023-04-22T04:41:55.555Z,3.2
2023-04-22T04:42:56.153Z,3.1
2023-04-22T04:43:56.752Z,2.9
2023-04-22T04:44:57.349Z,3.3
2023-04-22T04:45:57.946Z,6.0
2023-04-22T04:46:58.680Z,3.4
2023-04-22T04:47:59.382Z,3.3
2023-04-22T04:48:59.953Z,3.3
2023-04-22T04:50:00.556Z,3.7
2023-04-22T04:51:01.173Z,3.4
2023-04-22T04:52:01.989Z,3.5
2023-04-22T04:53:02.388Z,3.2
2023-04-22T04:54:02.981Z,3.4
2023-04-22T04:55:03.589Z,4.0
2023-04-22T04:56:04.179Z,3.3
2023-04-22T04:57:04.771Z,3.0
2023-04-22T04:58:05.399Z,3.5
2023-04-22T04:59:06.003Z,3.7
2023-04-22T05:00:06.588Z,3.5
2023-04-22T05:01:07.182Z,3.6
2023-04-22T05:02:07.923Z,3.4
2023-04-22T05:03:08.848Z,3.5
2023-04-22T05:04:09.495Z,3.7
2023-04-22T05:05:10.121Z,3.3
2023-04-22T05:06:10.735Z,3.7
2023-04-22T05:07:11.327Z,3.7
2023-04-22T05:08:11.943Z,3.0
2023-04-22T05:09:12.540Z,3.5
2023-04-22T05:10:13.185Z,3.7
2023-04-22T05:11:13.782Z,3.7
2023-04-22T05:12:14.401Z,3.5
2023-04-22T05:13:14.996Z,3.2
2023-04-22T05:14:15.603Z,3.3
2023-04-22T05:15:16.218Z,3.2
2023-04-22T05:16:16.868Z,3.5
2023-04-22T05:17:17.416Z,3.1
2023-04-22T05:18:18.013Z,3.3
2023-04-22T05:19:18.628Z,3.5
2023-04-22T05:20:19.258Z,3.9
2023-04-22T05:21:19.858Z,3.4
2023-04-22T05:22:20.452Z,3.7
2023-04-22T05:23:21.049Z,3.5
2023-04-22T05:24:21.658Z,3.3
2023-04-22T05:25:22.248Z,3.4
2023-04-22T05:26:22.848Z,3.6
2023-04-22T05:27:23.446Z,3.1
2023-04-22T05:28:24.051Z,3.1
2023-04-22T05:29:24.660Z,3.9
2023-04-22T05:30:25.255Z,3.7
2023-04-22T05:31:25.944Z,3.3
2023-04-22T05:32:26.540Z,3.2
2023-04-22T05:33:27.171Z,3.3
2023-04-22T05:34:27.786Z,3.1
2023-04-22T05:35:28.410Z,3.4
2023-04-22T05:36:31.275Z,3.2
2023-04-22T05:37:30.591Z,3.6
2023-04-22T05:38:31.194Z,3.7
2023-04-22T05:39:31.794Z,3.5
2023-04-22T05:40:32.405Z,3.4
2023-04-22T05:41:33.007Z,3.5
2023-04-22T05:42:33.618Z,3.8
2023-04-22T05:43:34.233Z,3.4
2023-04-22T05:44:34.831Z,3.4
2023-04-22T05:45:35.463Z,3.6
2023-04-22T05:46:36.205Z,3.1
2023-04-22T05:47:36.894Z,2.9
2023-04-22T05:48:37.491Z,3.1
2023-04-22T05:49:38.421Z,3.5
2023-04-22T05:50:39.131Z,3.0
2023-04-22T05:51:39.730Z,3.3
2023-04-22T05:52:40.333Z,3.4
2023-04-22T05:53:40.939Z,3.8
2023-04-22T05:54:41.556Z,3.3
2023-04-22T05:55:42.187Z,3.1
2023-04-22T05:56:42.772Z,3.2
2023-04-22T05:57:43.380Z,3.3
2023-04-22T05:58:43.977Z,2.9
2023-04-22T05:59:44.578Z,2.9
2023-04-22T06:00:45.181Z,3.0
2023-04-22T06:01:45.805Z,3.4
2023-04-22T06:02:46.521Z,3.1
2023-04-22T06:03:47.468Z,3.6
2023-04-22T06:04:48.316Z,3.5
2023-04-22T06:05:49.026Z,2.8
2023-04-22T06:06:49.581Z,3.0
2023-04-22T06:07:50.200Z,3.5
2023-04-22T06:08:50.806Z,3.1
2023-04-22T06:09:57.017Z,3.2
2023-04-22T06:10:53.030Z,3.3
2023-04-22T06:11:53.613Z,3.7
2023-04-22T06:12:54.232Z,3.4
2023-04-22T06:13:54.861Z,3.3
2023-04-22T06:14:55.454Z,3.4
2023-04-22T06:15:56.107Z,3.6
2023-04-22T06:16:56.666Z,3.5
2023-04-22T06:17:57.283Z,3.2
2023-04-22T06:18:57.889Z,3.4
2023-04-22T06:19:58.492Z,3.4
2023-04-22T06:20:59.095Z,3.1
2023-04-22T06:21:59.683Z,3.6
2023-04-22T06:23:00.283Z,3.6
2023-04-22T06:24:00.879Z,3.2
2023-04-22T06:25:01.502Z,3.3
2023-04-22T06:26:02.085Z,3.5
2023-04-22T06:27:02.686Z,3.0
2023-04-22T06:28:03.299Z,3.4
2023-04-22T06:29:03.900Z,3.6
2023-04-22T06:30:04.508Z,3.2
2023-04-22T06:31:05.170Z,3.4
2023-04-22T06:32:05.755Z,3.3
2023-04-22T06:33:06.400Z,2.9
2023-04-22T06:34:06.964Z,2.8
2023-04-22T06:35:07.588Z,3.2
2023-04-22T06:36:08.197Z,3.4
2023-04-22T06:37:08.930Z,3.2
2023-04-22T06:38:09.541Z,3.6
2023-04-22T06:39:10.138Z,3.3
2023-04-22T06:40:10.740Z,3.1
2023-04-22T06:41:11.338Z,3.2
2023-04-22T06:42:11.941Z,3.2
2023-04-22T06:43:12.571Z,3.5
2023-04-22T06:44:13.140Z,3.5
2023-04-22T06:45:13.742Z,3.4
2023-04-22T06:46:14.394Z,3.1
2023-04-22T06:47:15.013Z,3.6
2023-04-22T06:48:15.629Z,2.5
2023-04-22T06:49:16.228Z,3.4
2023-04-22T06:50:16.825Z,3.3
2023-04-22T06:51:17.457Z,3.3
2023-04-22T06:52:18.038Z,3.0
2023-04-22T06:53:18.642Z,2.8
2023-04-22T06:54:19.301Z,3.0
2023-04-22T06:55:19.856Z,2.8
2023-04-22T06:56:20.456Z,3.5
2023-04-22T06:57:21.076Z,3.5
2023-04-22T06:58:21.716Z,3.1
2023-04-22T06:59:22.301Z,3.1
2023-04-22T07:00:22.920Z,3.3
2023-04-22T07:01:23.594Z,3.6
2023-04-22T07:02:24.321Z,3.2
2023-04-22T07:03:24.925Z,3.8
2023-04-22T07:04:25.645Z,3.4
2023-04-22T07:05:26.243Z,3.1
2023-04-22T07:06:26.837Z,3.1
2023-04-22T07:07:27.435Z,3.5
2023-04-22T07:08:28.036Z,3.8
2023-04-22T07:09:28.638Z,3.7
2023-04-22T07:10:29.241Z,3.1
2023-04-22T07:11:29.838Z,3.7
2023-04-22T07:12:30.438Z,3.5
2023-04-22T07:13:31.037Z,3.9
2023-04-22T07:14:31.642Z,5.4
2023-04-22T07:15:32.246Z,5.2
2023-04-22T07:16:33.008Z,4.3
2023-04-22T07:17:33.704Z,3.7
2023-04-22T07:18:34.259Z,3.7
2023-04-22T07:19:35.410Z,3.5
2023-04-22T07:20:36.035Z,3.6
2023-04-22T07:21:36.652Z,4.1
2023-04-22T07:22:37.258Z,3.9
2023-04-22T07:23:37.877Z,3.6
2023-04-22T07:24:38.487Z,3.0
2023-04-22T07:25:39.080Z,2.6
2023-04-22T07:26:39.683Z,2.9
2023-04-22T07:27:40.279Z,3.3
2023-04-22T07:28:40.904Z,2.9
2023-04-22T07:29:41.748Z,3.0
2023-04-22T07:30:42.410Z,3.0
2023-04-22T07:31:43.039Z,2.2
2023-04-22T07:32:43.646Z,2.3
2023-04-22T07:33:44.212Z,2.1
2023-04-22T07:34:44.814Z,2.1
2023-04-22T07:35:45.413Z,2.3
2023-04-22T07:36:46.015Z,2.2
2023-04-22T07:37:46.614Z,2.4
2023-04-22T07:38:47.218Z,2.4
2023-04-22T07:39:47.837Z,2.1
2023-04-22T07:40:48.440Z,2.0
2023-04-22T07:41:49.063Z,2.0
2023-04-22T07:42:49.667Z,2.1
2023-04-22T07:43:50.263Z,2.5
2023-04-22T07:44:50.865Z,2.8
2023-04-22T07:45:51.574Z,2.3
2023-04-22T07:46:52.084Z,2.0
2023-04-22T07:47:52.769Z,2.0
2023-04-22T07:48:53.451Z,2.1
2023-04-22T07:49:54.035Z,2.2
2023-04-22T07:50:54.640Z,2.1
2023-04-22T07:51:55.256Z,2.1
2023-04-22T07:52:55.859Z,2.1
2023-04-22T07:53:56.469Z,2.4
2023-04-22T07:54:57.056Z,2.1
2023-04-22T07:55:57.659Z,2.0
2023-04-22T07:56:58.273Z,2.0
2023-04-22T07:57:58.881Z,1.8
2023-04-22T07:58:59.481Z,2.0
2023-04-22T08:00:00.146Z,2.0
2023-04-22T08:01:00.725Z,2.1
2023-04-22T08:02:01.310Z,1.7
2023-04-22T08:03:01.967Z,2.3
2023-04-22T08:04:02.802Z,2.0
2023-04-22T08:05:03.618Z,2.4
2023-04-22T08:06:04.316Z,2.0
2023-04-22T08:07:17.120Z,1.8
2023-04-22T08:08:06.517Z,2.0
2023-04-22T08:09:07.123Z,1.9
2023-04-22T08:10:07.731Z,1.8
2023-04-22T08:11:08.337Z,1.8
2023-04-22T08:12:08.934Z,1.8
2023-04-22T08:13:09.539Z,1.9
2023-04-22T08:14:10.134Z,2.0
2023-04-22T08:15:10.757Z,2.1
2023-04-22T08:16:11.359Z,2.0
2023-04-22T08:17:11.941Z,1.9
2023-04-22T08:18:12.543Z,2.0
2023-04-22T08:19:13.142Z,2.2
2023-04-22T08:20:13.776Z,2.1
2023-04-22T08:21:14.390Z,2.3
2023-04-22T08:22:14.985Z,2.2
2023-04-22T08:23:15.618Z,2.3
2023-04-22T08:24:16.201Z,2.1
2023-04-22T08:25:16.802Z,1.9
2023-04-22T08:26:17.408Z,2.2
2023-04-22T08:27:18.004Z,2.1
2023-04-22T08:28:18.624Z,2.0
2023-04-22T08:29:19.229Z,2.0
2023-04-22T08:30:19.830Z,2.2
2023-04-22T08:31:20.456Z,2.2
2023-04-22T08:32:21.077Z,2.0
2023-04-22T08:33:21.637Z,2.2
2023-04-22T08:34:22.230Z,1.9
2023-04-22T08:35:22.833Z,1.6
2023-04-22T08:36:23.433Z,1.9
2023-04-22T08:37:24.053Z,2.1
2023-04-22T08:38:24.654Z,1.9
2023-04-22T08:39:25.256Z,1.9
2023-04-22T08:40:25.856Z,1.9
2023-04-22T08:41:26.457Z,2.1
2023-04-22T08:42:27.085Z,1.8
2023-04-22T08:43:27.677Z,2.0
2023-04-22T08:44:28.271Z,1.8
2023-04-22T08:45:28.878Z,2.0
2023-04-22T08:46:29.533Z,2.2
2023-04-22T08:47:30.152Z,1.9
2023-04-22T08:48:30.713Z,2.0
2023-04-22T08:49:31.315Z,1.7
2023-04-22T08:50:31.918Z,2.3
2023-04-22T08:51:32.543Z,1.9
2023-04-22T08:52:33.203Z,1.8
2023-04-22T08:53:33.754Z,2.0
2023-04-22T08:54:34.363Z,2.0
2023-04-22T08:55:34.961Z,2.0
2023-04-22T08:56:35.590Z,2.1
2023-04-22T08:57:36.181Z,1.8
2023-04-22T08:58:36.789Z,2.2
2023-04-22T08:59:37.532Z,2.1
2023-04-22T09:00:38.383Z,2.0
2023-04-22T09:01:39.003Z,1.9
2023-04-22T09:02:39.641Z,1.9
2023-04-22T09:03:40.489Z,1.7
2023-04-22T09:04:40.887Z,2.1
2023-04-22T09:05:41.445Z,2.0
2023-04-22T09:06:42.068Z,1.9
2023-04-22T09:07:42.678Z,2.2
2023-04-22T09:08:43.286Z,2.1
2023-04-22T09:09:43.884Z,1.9
2023-04-22T09:10:44.501Z,1.9
2023-04-22T09:11:45.104Z,1.8
2023-04-22T09:12:45.705Z,1.7
2023-04-22T09:13:46.306Z,1.7
2023-04-22T09:14:46.903Z,1.6
2023-04-22T09:15:47.510Z,1.6
2023-04-22T09:16:48.255Z,1.5
2023-04-22T09:17:48.878Z,1.8
2023-04-22T09:18:49.439Z,1.6
2023-04-22T09:19:50.041Z,1.9
2023-04-22T09:20:50.642Z,1.7
2023-04-22T09:21:53.692Z,2.2
2023-04-22T09:22:52.855Z,1.8
2023-04-22T09:23:53.469Z,1.4
2023-04-22T09:24:54.059Z,1.7
2023-04-22T09:25:54.658Z,2.1
2023-04-22T09:26:55.267Z,1.7
2023-04-22T09:27:55.869Z,1.9
2023-04-22T09:28:56.458Z,1.6
2023-04-22T09:29:57.060Z,1.9
2023-04-22T09:30:57.662Z,1.6
2023-04-22T09:31:58.294Z,1.9
2023-04-22T09:32:58.965Z,2.0
2023-04-22T09:33:59.526Z,2.0
2023-04-22T09:35:00.194Z,1.9
2023-04-22T09:36:00.741Z,1.8
2023-04-22T09:37:01.343Z,1.9
2023-04-22T09:38:01.963Z,2.2
2023-04-22T09:39:02.581Z,2.0
2023-04-22T09:40:03.185Z,1.8
2023-04-22T09:41:03.805Z,1.9
2023-04-22T09:42:04.402Z,1.6
2023-04-22T09:43:05.004Z,1.9
2023-04-22T09:44:05.639Z,2.0
2023-04-22T09:45:06.251Z,1.8
2023-04-22T09:46:07.028Z,2.2
2023-04-22T09:47:07.473Z,2.2
2023-04-22T09:48:08.084Z,2.6
2023-04-22T09:49:08.680Z,2.1
2023-04-22T09:50:09.294Z,2.2
2023-04-22T09:51:09.885Z,2.0
2023-04-22T09:52:10.487Z,2.0
2023-04-22T09:53:11.134Z,2.0
2023-04-22T09:54:11.795Z,2.0
2023-04-22T09:55:12.408Z,2.0
2023-04-22T09:56:13.011Z,2.0
2023-04-22T09:57:13.618Z,1.9
2023-04-22T09:58:14.221Z,2.1
2023-04-22T09:59:14.835Z,2.4
2023-04-22T10:00:15.458Z,2.1
2023-04-22T10:01:16.148Z,2.0
2023-04-22T10:02:16.793Z,2.3
2023-04-22T10:03:17.454Z,2.2
2023-04-22T10:04:17.983Z,1.8
2023-04-22T10:05:18.574Z,2.4
2023-04-22T10:06:19.175Z,2.1
2023-04-22T10:07:19.785Z,2.0
2023-04-22T10:08:20.389Z,2.1
2023-04-22T10:09:21.004Z,2.1
2023-04-22T10:10:21.633Z,2.1
2023-04-22T10:11:22.226Z,2.1
2023-04-22T10:12:32.855Z,2.1
2023-04-22T10:13:24.443Z,2.3
2023-04-22T10:14:25.061Z,2.1
2023-04-22T10:15:26.988Z,2.2
2023-04-22T10:16:26.292Z,2.4
2023-04-22T10:17:26.885Z,2.1
2023-04-22T10:18:27.477Z,5.6
2023-04-22T10:19:28.085Z,2.3
2023-04-22T10:20:28.693Z,2.4
2023-04-22T10:21:29.321Z,2.2
2023-04-22T10:22:29.942Z,2.1
2023-04-22T10:23:30.531Z,1.9
2023-04-22T10:24:31.346Z,2.2
2023-04-22T10:25:31.887Z,2.3
2023-04-22T10:26:32.515Z,2.3
2023-04-22T10:27:33.115Z,1.9
2023-04-22T10:28:33.712Z,1.8
2023-04-22T10:29:34.332Z,2.3
2023-04-22T10:30:35.243Z,1.9
2023-04-22T10:31:35.832Z,3.5
2023-04-22T10:32:36.402Z,2.7
2023-04-22T10:33:37.006Z,2.3
2023-04-22T10:34:37.597Z,2.5
2023-04-22T10:35:38.205Z,2.5
2023-04-22T10:36:38.805Z,2.4
2023-04-22T10:37:39.439Z,2.4
2023-04-22T10:38:40.021Z,2.3
2023-04-22T10:39:40.912Z,2.0
2023-04-22T10:40:41.712Z,2.2
2023-04-22T10:41:42.314Z,2.4
2023-04-22T10:42:42.941Z,2.6
2023-04-22T10:43:43.549Z,2.3
2023-04-22T10:44:44.145Z,2.4
2023-04-22T10:45:44.749Z,2.6
2023-04-22T10:46:45.558Z,2.2
2023-04-22T10:47:45.979Z,2.3
2023-04-22T10:48:46.572Z,2.5
2023-04-22T10:49:47.167Z,2.1
2023-04-22T10:50:47.767Z,2.4
2023-04-22T10:51:48.381Z,2.4
2023-04-22T10:52:48.992Z,2.4
2023-04-22T10:53:49.595Z,2.1
2023-04-22T10:54:50.200Z,1.9
2023-04-22T10:55:50.806Z,2.4
2023-04-22T10:56:57.564Z,2.2
2023-04-22T10:57:52.991Z,2.3
2023-04-22T10:58:53.604Z,2.4
2023-04-22T10:59:54.199Z,2.1
2023-04-22T11:00:54.816Z,2.2
2023-04-22T11:01:55.465Z,2.1
2023-04-22T11:02:56.185Z,2.1
2023-04-22T11:03:56.951Z,2.1
2023-04-22T11:04:57.542Z,2.1
2023-04-22T11:05:58.146Z,1.8
2023-04-22T11:06:58.750Z,2.7
2023-04-22T11:07:59.384Z,2.5
2023-04-22T11:08:59.994Z,2.1
2023-04-22T11:10:00.618Z,2.2
2023-04-22T11:11:01.227Z,2.3
2023-04-22T11:12:01.831Z,4.9
2023-04-22T11:13:02.430Z,3.4
2023-04-22T11:14:03.032Z,2.3
2023-04-22T11:15:03.640Z,2.7
2023-04-22T11:16:04.282Z,2.7
2023-04-22T11:17:04.846Z,1.9
2023-04-22T11:18:05.447Z,2.5
2023-04-22T11:19:06.051Z,2.3
2023-04-22T11:20:06.669Z,1.8
2023-04-22T11:21:07.274Z,2.3
2023-04-22T11:22:07.876Z,1.8
2023-04-22T11:23:08.471Z,2.5
2023-04-22T11:24:09.080Z,2.9
2023-04-22T11:25:09.674Z,2.1
2023-04-22T11:26:10.276Z,2.4
2023-04-22T11:27:10.876Z,2.5
2023-04-22T11:28:11.550Z,2.4
2023-04-22T11:29:12.099Z,6.7
2023-04-22T11:30:12.690Z,2.0
2023-04-22T11:31:13.310Z,2.4
2023-04-22T11:32:13.893Z,2.3
2023-04-22T11:33:14.497Z,2.2
2023-04-22T11:34:15.101Z,2.4
2023-04-22T11:35:15.702Z,2.6
2023-04-22T11:36:16.305Z,2.3
2023-04-22T11:37:16.910Z,2.5
2023-04-22T11:38:17.517Z,2.2
2023-04-22T11:39:18.120Z,2.7
2023-04-22T11:40:29.410Z,2.2
2023-04-22T11:41:19.333Z,2.6
2023-04-22T11:42:19.939Z,6.1
2023-04-22T11:43:20.535Z,6.0
2023-04-22T11:44:21.139Z,2.3
2023-04-22T11:45:21.740Z,2.4
2023-04-22T11:46:22.676Z,2.5
2023-04-22T11:47:23.245Z,2.4
2023-04-22T11:48:23.843Z,2.8
2023-04-22T11:49:24.440Z,2.4
2023-04-22T11:50:25.043Z,1.9
2023-04-22T11:51:25.646Z,2.2
2023-04-22T11:52:26.260Z,2.2
2023-04-22T11:53:26.853Z,1.7
2023-04-22T11:54:27.475Z,2.0
2023-04-22T11:55:28.073Z,1.9
2023-04-22T11:56:28.695Z,2.1
2023-04-22T11:57:29.293Z,2.1
2023-04-22T11:58:29.897Z,2.1
2023-04-22T11:59:30.504Z,1.9
2023-04-22T12:00:31.101Z,1.8
2023-04-22T12:01:31.707Z,2.1
2023-04-22T12:02:32.426Z,1.6
2023-04-22T12:03:33.182Z,1.6
2023-04-22T12:04:33.626Z,1.7
2023-04-22T12:05:34.364Z,2.1
2023-04-22T12:06:34.954Z,1.8
2023-04-22T12:07:35.561Z,1.8
2023-04-22T12:08:36.163Z,2.2
2023-04-22T12:09:36.839Z,1.5
2023-04-22T12:10:37.424Z,2.1
2023-04-22T12:11:38.024Z,1.8
2023-04-22T12:12:38.645Z,1.5
2023-04-22T12:13:39.246Z,1.4
2023-04-22T12:14:39.867Z,1.7
2023-04-22T12:15:40.470Z,1.9
2023-04-22T12:16:41.094Z,1.7
2023-04-22T12:17:41.720Z,1.8
2023-04-22T12:18:42.293Z,1.5
2023-04-22T12:19:42.993Z,1.7
2023-04-22T12:20:43.564Z,1.7
2023-04-22T12:21:44.166Z,1.6
2023-04-22T12:22:44.779Z,1.6
2023-04-22T12:23:45.377Z,1.8
2023-04-22T12:24:45.990Z,1.6
2023-04-22T12:25:46.598Z,1.8
2023-04-22T12:26:47.203Z,1.8
2023-04-22T12:27:47.819Z,1.7
2023-04-22T12:28:48.407Z,1.7
2023-04-22T12:29:49.009Z,1.7
2023-04-22T12:30:49.637Z,1.6
2023-04-22T12:31:50.233Z,1.9
2023-04-22T12:32:50.836Z,1.6
2023-04-22T12:33:51.452Z,1.6
2023-04-22T12:34:52.046Z,1.6
2023-04-22T12:35:52.703Z,1.6
2023-04-22T12:36:53.270Z,1.6
2023-04-22T12:37:53.887Z,1.7
2023-04-22T12:38:54.486Z,1.6
2023-04-22T12:39:55.089Z,1.8
2023-04-22T12:40:55.690Z,1.7
2023-04-22T12:41:56.297Z,1.6
2023-04-22T12:42:56.897Z,1.9
2023-04-22T12:43:57.520Z,1.8
2023-04-22T12:44:58.123Z,1.7
2023-04-22T12:45:58.744Z,1.7
2023-04-22T12:46:59.334Z,1.8
2023-04-22T12:47:59.994Z,1.6
2023-04-22T12:49:00.562Z,1.6
2023-04-22T12:50:01.163Z,1.4
2023-04-22T12:51:01.789Z,1.8
2023-04-22T12:52:02.392Z,2.0
2023-04-22T12:53:03.012Z,1.5
2023-04-22T12:54:03.634Z,1.7
2023-04-22T12:55:04.256Z,1.7
2023-04-22T12:56:04.860Z,1.7
2023-04-22T12:57:05.461Z,1.6
2023-04-22T12:58:06.067Z,1.7
2023-04-22T12:59:06.686Z,1.6
2023-04-22T13:00:07.288Z,1.7
2023-04-22T13:01:07.892Z,1.8
2023-04-22T13:02:08.682Z,1.7
2023-04-22T13:03:09.375Z,1.9
2023-04-22T13:04:10.062Z,1.9
2023-04-22T13:05:10.592Z,1.7
2023-04-22T13:06:11.193Z,1.6
2023-04-22T13:07:11.795Z,1.8
2023-04-22T13:08:12.394Z,1.9
2023-04-22T13:09:13.062Z,2.0
2023-04-22T13:10:13.619Z,2.1
2023-04-22T13:11:14.222Z,1.8
2023-04-22T13:12:14.825Z,2.0
2023-04-22T13:13:17.896Z,1.9
2023-04-22T13:14:16.308Z,1.7
2023-04-22T13:15:16.912Z,1.8
2023-04-22T13:16:17.565Z,1.7
2023-04-22T13:17:18.141Z,1.7
2023-04-22T13:18:18.811Z,2.1
2023-04-22T13:19:19.422Z,1.9
2023-04-22T13:20:20.019Z,1.9
2023-04-22T13:21:20.624Z,1.6
2023-04-22T13:22:21.225Z,1.8
2023-04-22T13:23:22.161Z,2.0
2023-04-22T13:24:22.776Z,1.6
2023-04-22T13:25:23.384Z,1.8
2023-04-22T13:26:23.984Z,1.6
2023-04-22T13:27:24.606Z,1.9
2023-04-22T13:28:25.207Z,1.5
2023-04-22T13:29:25.809Z,1.6
2023-04-22T13:30:26.452Z,1.6
2023-04-22T13:31:27.184Z,1.7
2023-04-22T13:32:27.740Z,2.3
2023-04-22T13:33:28.340Z,1.8
2023-04-22T13:34:28.941Z,2.0
2023-04-22T13:35:29.553Z,2.2
2023-04-22T13:36:30.146Z,1.8
2023-04-22T13:37:30.748Z,1.8
2023-04-22T13:38:31.351Z,1.5
2023-04-22T13:39:31.954Z,2.1
2023-04-22T13:40:32.596Z,1.7
2023-04-22T13:41:33.162Z,1.8
2023-04-22T13:42:33.762Z,1.9
2023-04-22T13:43:34.366Z,1.5
2023-04-22T13:44:34.990Z,1.8
2023-04-22T13:45:35.616Z,1.8
2023-04-22T13:46:36.218Z,1.9
2023-04-22T13:47:36.877Z,2.0
2023-04-22T13:48:37.443Z,1.6
2023-04-22T13:49:38.331Z,1.7
2023-04-22T13:50:38.993Z,1.9
2023-04-22T13:51:39.596Z,1.7
2023-04-22T13:52:40.199Z,1.9
2023-04-22T13:53:40.821Z,1.8
2023-04-22T13:54:41.419Z,1.8